Terminal Aerodrome Forecast
Issued by NWS Sioux Falls, SD

Home | Current Version | Previous Version | Text Only | Print | Product List | Glossary On
Versions: 1 2 3 4 5 6 7 8 9 10 11 12 13
000
FTUS43 KFSD 311147
TAFFSD
TAF
KFSD 311147Z 3112/0112 17009KT P6SM SCT120 BKN250
     FM311600 21012KT P6SM SCT040 BKN200
     FM312100 26007KT P6SM OVC070
      TEMPO 3121/3124 4SM TSRA OVC035CB
     FM010100 33007KT P6SM BKN050
      TEMPO 0104/0107 6SM -SHRA
     FM010800 33006KT P6SM BKN090=

USA.gov is the U.S. government's official web portal to all federal, state and local government web resources and services.